Flight Track Log - Related Links

Times and Time Zones

All times are in EDT time to prevent confusion due to time zone crossing. See the N934RB flight status page for this flight to view local times or setup timezone preferences in your user account.

Time Position Orientation Groundspeed Altitude Reporting Facility
EDT Latitude Longitude Course Direction KTS MPH feet Rate Location/Type
Fri 05:59:38 PM 41.1720 -73.6980 North 121 139 3,700  Level FlightAware ADS-B
Fri 05:59:57 PM 41.1810 -73.6970 North 121 139 4,000 391 Climbing FlightAware ADS-B
Fri 06:00:24 PM 41.1940 -73.6950 North 121 139 4,000 1,176 Level FlightAware ADS-B
Fri 06:00:48 PM 41.2110 -73.6920 North 117 135 5,000 1,417 Climbing FlightAware ADS-B
Fri 06:01:36 PM 41.2380 -73.6880 North 119 137 5,700 789 Climbing FlightAware ADS-B
Fri 06:02:04 PM 41.2530 -73.6850 North 122 140 6,000 900 Climbing FlightAware ADS-B
Fri 06:02:36 PM 41.2710 -73.6820 North 121 139 6,600 1,000 Climbing FlightAware ADS-B
Fri 06:02:52 PM 41.2800 -73.6810 North 121 139 6,800 750 Climbing FlightAware ADS-B
Fri 06:03:16 PM 41.2930 -73.6790 North 123 142 7,100 500 Climbing FlightAware ADS-B
Fri 06:03:52 PM 41.3150 -73.6760 North 134 154 7,300 188 Climbing FlightAware ADS-B
Fri 06:04:20 PM 41.3330 -73.6730 North 146 168 7,300  Level FlightAware ADS-B
Fri 06:04:38 PM 41.3460 -73.6710 North 150 173 7,300  Level FlightAware ADS-B
Fri 06:05:01 PM 41.3620 -73.6680 North 153 176 7,300  Level FlightAware ADS-B
Fri 06:05:34 PM 41.3850 -73.6650 North 155 178 7,300  Level FlightAware ADS-B
Fri 06:06:09 PM 41.4100 -73.6610 North 157 181 7,300  Level FlightAware ADS-B
Fri 06:06:33 PM 41.4270 -73.6580 North 154 177 7,300  Level FlightAware ADS-B
Fri 06:06:50 PM 41.4390 -73.6560 North 152 175 7,300  Level FlightAware ADS-B
Fri 06:07:21 PM 41.4610 -73.6530 North 155 178 7,300 109 Level FlightAware ADS-B
Fri 06:07:45 PM 41.4780 -73.6500 North 150 173 7,400 462 Climbing FlightAware ADS-B
Fri 06:08:13 PM 41.4970 -73.6470 North 142 163 7,700 526 Climbing FlightAware ADS-B
Fri 06:08:42 PM 41.5160 -73.6440 North 137 158 7,900 536 Climbing FlightAware ADS-B
Fri 06:09:09 PM 41.5330 -73.6410 North 135 155 8,200 577 Climbing FlightAware ADS-B
Fri 06:09:34 PM 41.5480 -73.6390 North 138 159 8,400 400 Climbing FlightAware ADS-B
Fri 06:09:54 PM 41.5620 -73.6370 North 142 163 8,500 409 Climbing FlightAware ADS-B
Fri 06:10:18 PM 41.5770 -73.6340 North 140 161 8,700 545 Climbing FlightAware ADS-B
Fri 06:10:38 PM 41.5890 -73.6320 North 136 157 8,900 462 Climbing FlightAware ADS-B
Fri 06:10:57 PM 41.6010 -73.6300 North 132 152 9,000 500 Climbing FlightAware ADS-B
Fri 06:11:26 PM 41.6180 -73.6280 North 131 151 9,300 295 Climbing FlightAware ADS-B
Fri 06:11:58 PM 41.6390 -73.6240 North 145 167 9,300  Level FlightAware ADS-B
Fri 06:12:30 PM 41.6610 -73.6210 North 151 174 9,300  Level FlightAware ADS-B
Fri 06:12:57 PM 41.6800 -73.6180 North 153 176 9,300  Level FlightAware ADS-B
Fri 06:13:27 PM 41.7010 -73.6150 North 153 176 9,300  Level FlightAware ADS-B
Fri 06:14:06 PM 41.7280 -73.6100 North 153 176 9,300  Level FlightAware ADS-B
Fri 06:14:29 PM 41.7450 -73.6070 North 149 171 9,300  Level FlightAware ADS-B
Fri 06:14:55 PM 41.7630 -73.6050 North 146 168 9,300  Level FlightAware ADS-B
Fri 06:15:22 PM 41.7800 -73.6020 North 149 171 9,300  Level FlightAware ADS-B
Fri 06:15:59 PM 41.8050 -73.5980 North 148 170 9,300  Level FlightAware ADS-B
Fri 06:16:20 PM 41.8210 -73.5950 North 150 173 9,300  Level FlightAware ADS-B
Fri 06:16:41 PM 41.8350 -73.5930 North 152 175 9,300  Level FlightAware ADS-B
Fri 06:17:03 PM 41.8500 -73.5910 North 153 176 9,300  Level FlightAware ADS-B
Fri 06:17:35 PM 41.8720 -73.5870 North 152 175 9,300  Level FlightAware ADS-B
Fri 06:18:03 PM 41.8920 -73.5840 North 154 177 9,300  Level FlightAware ADS-B
Fri 06:18:38 PM 41.9180 -73.5800 North 154 177 9,300  Level FlightAware ADS-B
Fri 06:19:06 PM 41.9370 -73.5770 North 152 175 9,300  Level FlightAware ADS-B
Fri 06:19:39 PM 41.9590 -73.5730 North 154 177 9,300  Level FlightAware ADS-B
Fri 06:20:06 PM 41.9690 -73.5720 North 152 175 9,300  Level FlightAware ADS-B
Fri 06:20:36 PM 42.0000 -73.5670 North 149 171 9,300  Level FlightAware ADS-B
Fri 06:20:49 PM 42.0090 -73.5650 North 150 173 9,300  Level FlightAware ADS-B
Fri 06:21:35 PM 42.0410 -73.5600 North 147 169 9,300  Level FlightAware ADS-B
Fri 06:22:00 PM 42.0560 -73.5580 North 147 169 9,300  Level FlightAware ADS-B
Fri 06:22:23 PM 42.0730 -73.5550 North 149 171 9,300  Level FlightAware ADS-B
Fri 06:23:01 PM 42.0950 -73.5520 North 149 171 9,300  Level FlightAware ADS-B
Fri 06:23:27 PM 42.1100 -73.5500 North 149 171 9,300  Level FlightAware ADS-B
Fri 06:23:52 PM 42.1250 -73.5480 North 149 171 9,300  Level FlightAware ADS-B
Fri 06:24:16 PM 42.1390 -73.5460 North 149 171 9,300 128 Level FlightAware ADS-B
Fri 06:25:26 PM 42.1922 -73.5364 North 152 175 9,500 126 Climbing Boston Center
Fri 06:25:51 PM 42.2144 -73.5339 North 153 176 9,500 -36 Level Boston Center
Fri 06:30:57 PM 42.4330 -73.4970 North 153 176 9,300 -36 Descending FlightAware ADS-B
Fri 06:31:23 PM 42.4530 -73.4930 North 153 176 9,300  Level FlightAware ADS-B
Fri 06:32:02 PM 42.4760 -73.4900 North 153 176 9,300  Level FlightAware ADS-B
Fri 06:32:27 PM 42.4910 -73.4870 North 153 176 9,300  Level FlightAware ADS-B
Fri 06:33:01 PM 42.5110 -73.4840 North 153 176 9,300  Level FlightAware ADS-B
Fri 06:33:13 PM 42.5190 -73.4830 North 153 176 9,300  Level FlightAware ADS-B
Fri 06:37:14 PM 42.7010 -73.4530 North 158 182 9,300  Level FlightAware ADS-B
Fri 06:37:27 PM 42.7110 -73.4510 North 158 182 9,300  Level FlightAware ADS-B
Fri 06:38:09 PM 42.7410 -73.4460 North 157 181 9,300  Level FlightAware ADS-B
Fri 06:38:50 PM 42.7660 -73.4430 North 157 181 9,300  Level FlightAware ADS-B
Fri 06:39:14 PM 42.7810 -73.4410 North 157 181 9,300  Level FlightAware ADS-B
Fri 06:39:36 PM 42.7940 -73.4390 North 157 181 9,300  Level FlightAware ADS-B
Fri 06:40:01 PM 42.8100 -73.4360 North 157 181 9,300 162 Level FlightAware ADS-B
Fri 06:40:50 PM 42.8544 -73.4286 North 155 178 9,500 197 Climbing Boston Center
Fri 06:41:02 PM 42.8606 -73.4258 18° North 155 178 9,500  Level Boston Center
Fri 06:41:51 PM 42.8978 -73.4217 North 158 182 9,500  Level Boston Center
Fri 06:42:03 PM 42.9069 -73.4181 16° North 160 184 9,500  Level Boston Center
Fri 06:42:52 PM 42.9414 -73.4133 North 157 181 9,500  Level Boston Center
Fri 06:43:04 PM 42.9489 -73.4114 11° North 155 178 9,500  Level Boston Center
Fri 06:43:52 PM 42.9842 -73.4064 North 145 167 9,500  Level Boston Center
Fri 06:44:05 PM 42.9889 -73.4042 19° North 147 169 9,500  Level Boston Center
Fri 06:44:56 PM 43.0264 -73.3994 North 151 174 9,500  Level Boston Center
Fri 06:45:57 PM 43.0722 -73.3925 North 163 188 9,500 -48 Level Boston Center
Fri 06:47:00 PM 43.1206 -73.3844 North 163 188 9,400 -244 Descending Boston Center
Fri 06:48:00 PM 43.1689 -73.3767 North 174 200 9,000 -446 Descending Boston Center
Fri 06:49:01 PM 43.2192 -73.3683 North 182 209 8,500 -528 Descending Boston Center
Fri 06:50:05 PM 43.2728 -73.3592 North 181 208 7,900 -532 Descending Boston Center
Fri 06:51:05 PM 43.3219 -73.3506 North 179 206 7,400 -496 Descending Boston Center
Fri 06:52:06 PM 43.3689 -73.3425 North 171 197 6,900 -484 Descending Boston Center
Fri 06:53:09 PM 43.4169 -73.3353 North 168 193 6,400 -484 Descending Boston Center
Fri 06:54:10 PM 43.4628 -73.3261 North 167 192 5,900 -496 Descending Boston Center
Fri 06:55:10 PM 43.5092 -73.3144 10° North 167 192 5,400 -488 Descending Boston Center
Fri 06:56:13 PM 43.5567 -73.3053 North 170 196 4,900 -484 Descending Boston Center
Fri 06:57:14 PM 43.6058 -73.2967 North 174 200 4,400 -492 Descending Boston Center
Fri 06:58:15 PM 43.6558 -73.2892 North 178 205 3,900 -435 Descending Boston Center
Fri 06:59:18 PM 43.7147 -73.2803 North 178 205 3,500 -194 Descending Boston Center
Fri 07:00:19 PM 43.7619 -73.2725 North 175 201 3,500  Level Boston Center
Fri 07:01:19 PM 43.8086 -73.2650 North 171 197 3,500  Level Boston Center
Fri 07:02:23 PM 43.8583 -73.2614 North 172 198 3,500  Level Boston Center
Fri 07:03:24 PM 43.9078 -73.2519 North 168 193 3,500  Level Boston Center
Fri 07:04:25 PM 43.9536 -73.2442 North 167 192 3,500  Level Boston Center
Fri 07:05:26 PM 43.9994 -73.2358 North 168 193 3,500  Level Boston Center
Fri 07:06:27 PM 44.0492 -73.2222 11° North 169 194 3,500 -48 Level Boston Center
Fri 07:07:31 PM 44.0950 -73.2094 11° North 172 198 3,400  Descending Boston Center
Fri 07:08:32 PM 44.1433 -73.1950 12° North 165 190 3,500 49 Climbing Boston Center
Fri 07:09:33 PM 44.1889 -73.1822 11° North 168 193 3,500 -99 Level Boston Center
Fri 07:10:33 PM 44.2358 -73.1686 12° North 173 199 3,300 -387 Descending Boston Center
Fri 07:11:37 PM 44.2897 -73.1553 10° North 182 209 2,700 -528 Descending Boston Center
Fri 07:12:38 PM 44.3367 -73.1444 North 175 201 2,200 -393 Descending Boston Center
Fri 07:13:39 PM 44.3831 -73.1267 15° North 164 189 1,900 -344 Descending Boston Center
Fri 07:14:40 PM 44.4156 -73.1125 17° North 131 151 1,500 -446 Descending Boston Center
Fri 07:15:40 PM 44.4472 -73.1150 357° North 107 123 1,000 -488 Descending Boston Center
Fri 07:16:43 PM 44.4617 -73.1358 314° West 77 89 500 -476 Descending Boston Center
Fri 07:18:00 PM 44.4667 -73.1500 10° North  Level FlightAware Approximate
Fri 07:25:00 PM 44.4719 -73.1533 10° North  Level Estimated
Fri 07:26:00 PM 44.4667 -73.1500 10° North  Level FlightAware Approximate

Login

Don't have an account? Register now (free) for customized features, flight alerts, and more!